createdAt,value
2018-05-24T00:00:24.278Z,20.60
2018-05-24T00:01:24.314Z,21.10
2018-05-24T00:02:24.351Z,20.40
2018-05-24T00:03:24.385Z,20.00
2018-05-24T00:04:24.421Z,18.50
2018-05-24T00:05:24.456Z,20.80
2018-05-24T00:06:24.493Z,21.70
2018-05-24T00:07:24.526Z,22.00
2018-05-24T00:08:24.561Z,23.60
2018-05-24T00:09:24.596Z,24.60
2018-05-24T00:10:24.632Z,22.70
2018-05-24T00:11:24.667Z,22.20
2018-05-24T00:12:24.702Z,23.70
2018-05-24T00:13:24.743Z,21.40
2018-05-24T00:14:24.774Z,21.70
2018-05-24T00:15:24.808Z,23.80
2018-05-24T00:16:24.844Z,20.50
2018-05-24T00:17:24.880Z,23.80
2018-05-24T00:18:24.915Z,21.20
2018-05-24T00:19:24.949Z,20.80
2018-05-24T00:20:24.984Z,21.60
2018-05-24T00:21:25.021Z,20.10
2018-05-24T00:22:25.060Z,21.00
2018-05-24T00:23:25.097Z,19.30
2018-05-24T00:24:25.126Z,20.60
2018-05-24T00:25:25.163Z,20.40
2018-05-24T00:26:25.197Z,20.20
2018-05-24T00:27:25.232Z,18.30
2018-05-24T00:28:25.266Z,20.10
2018-05-24T00:29:25.304Z,20.30
2018-05-24T00:30:25.339Z,21.70
2018-05-24T00:31:25.373Z,19.90
2018-05-24T00:32:25.410Z,20.70
2018-05-24T00:33:25.445Z,19.00
2018-05-24T00:34:25.481Z,20.50
2018-05-24T00:35:25.515Z,20.60
2018-05-24T00:36:25.551Z,20.70
2018-05-24T00:37:25.587Z,21.70
2018-05-24T00:38:25.622Z,22.80
2018-05-24T00:39:25.660Z,21.00
2018-05-24T00:40:25.692Z,21.70
2018-05-24T00:41:25.728Z,23.40
2018-05-24T00:42:25.763Z,22.10
2018-05-24T00:43:25.799Z,20.70
2018-05-24T00:44:25.838Z,20.90
2018-05-24T00:45:25.871Z,19.10
2018-05-24T00:46:25.912Z,20.90
2018-05-24T00:47:25.949Z,21.90
2018-05-24T00:48:25.977Z,20.90
2018-05-24T00:49:26.015Z,20.80
2018-05-24T00:50:26.049Z,21.20
2018-05-24T00:51:26.083Z,20.30
2018-05-24T00:52:26.119Z,21.70
2018-05-24T00:53:26.155Z,21.30
2018-05-24T00:54:26.191Z,19.60
2018-05-24T00:55:26.226Z,20.10
2018-05-24T00:56:26.261Z,19.60
2018-05-24T00:57:26.297Z,19.80
2018-05-24T00:58:26.332Z,19.10
2018-05-24T00:59:26.368Z,17.80
2018-05-24T01:00:26.403Z,18.20
2018-05-24T01:01:26.439Z,16.80
2018-05-24T01:02:26.474Z,17.10
2018-05-24T01:03:26.509Z,17.60
2018-05-24T01:04:26.544Z,17.70
2018-05-24T01:05:26.584Z,16.40
2018-05-24T01:06:26.617Z,17.60
2018-05-24T01:07:26.651Z,17.50
2018-05-24T01:08:26.685Z,18.40
2018-05-24T01:09:26.722Z,16.60
2018-05-24T01:10:26.757Z,15.30
2018-05-24T01:11:26.793Z,16.60
2018-05-24T01:12:26.828Z,16.10
2018-05-24T01:13:26.864Z,17.70
2018-05-24T01:14:26.900Z,18.70
2018-05-24T01:15:26.935Z,17.40
2018-05-24T01:16:26.970Z,16.90
2018-05-24T01:17:27.006Z,16.50
2018-05-24T01:18:27.042Z,16.60
2018-05-24T01:19:27.077Z,17.90
2018-05-24T01:20:27.112Z,17.80
2018-05-24T01:21:27.148Z,17.90
2018-05-24T01:22:27.184Z,16.40
2018-05-24T01:23:27.218Z,17.60
2018-05-24T01:24:27.254Z,16.90
2018-05-24T01:25:27.290Z,18.30
2018-05-24T01:26:27.329Z,17.70
2018-05-24T01:27:27.361Z,19.50
2018-05-24T01:28:27.398Z,18.60
2018-05-24T01:29:27.433Z,19.00
2018-05-24T01:30:27.467Z,19.60
2018-05-24T01:31:27.502Z,18.50
2018-05-24T01:32:27.538Z,18.80
2018-05-24T01:33:27.574Z,17.20
2018-05-24T01:34:27.610Z,16.50
2018-05-24T01:35:27.644Z,16.90
2018-05-24T01:36:27.680Z,17.60
2018-05-24T01:37:27.720Z,18.40
2018-05-24T01:38:27.752Z,17.00
2018-05-24T01:39:27.786Z,17.30
2018-05-24T01:40:27.822Z,19.50
2018-05-24T01:41:27.857Z,19.20
2018-05-24T01:42:27.895Z,20.70
2018-05-24T01:43:27.928Z,19.50
2018-05-24T01:44:27.964Z,21.40
2018-05-24T01:45:27.999Z,21.00
2018-05-24T01:46:28.035Z,20.50
2018-05-24T01:47:28.071Z,21.00
2018-05-24T01:48:28.105Z,21.60
2018-05-24T01:49:28.141Z,23.50
2018-05-24T01:50:28.177Z,23.30
2018-05-24T01:51:28.219Z,20.80
2018-05-24T01:52:28.250Z,17.50
2018-05-24T01:53:28.282Z,16.60
2018-05-24T01:54:28.319Z,18.00
2018-05-24T01:55:28.354Z,18.60
2018-05-24T01:56:28.390Z,18.00
2018-05-24T01:57:28.425Z,18.20
2018-05-24T01:58:28.461Z,15.80
2018-05-24T01:59:28.496Z,15.60
2018-05-24T02:00:28.531Z,16.60
2018-05-24T02:01:28.568Z,17.00
2018-05-24T02:02:28.603Z,15.60
2018-05-24T02:03:28.636Z,16.60
2018-05-24T02:04:28.673Z,15.60
2018-05-24T02:05:28.709Z,15.80
2018-05-24T02:06:28.744Z,17.30
2018-05-24T02:07:28.779Z,18.00
2018-05-24T02:08:28.815Z,19.60
2018-05-24T02:09:28.849Z,20.50
2018-05-24T02:10:28.889Z,20.00
2018-05-24T02:11:28.920Z,20.70
2018-05-24T02:12:28.957Z,19.80
2018-05-24T02:13:28.991Z,21.20
2018-05-24T02:14:29.031Z,22.10
2018-05-24T02:15:29.061Z,20.70
2018-05-24T02:16:29.096Z,20.60
2018-05-24T02:17:29.133Z,20.00
2018-05-24T02:18:29.173Z,19.50
2018-05-24T02:19:29.203Z,19.10
2018-05-24T02:20:29.239Z,20.10
2018-05-24T02:21:29.274Z,20.20
2018-05-24T02:22:29.310Z,21.30
2018-05-24T02:23:29.345Z,20.50
2018-05-24T02:24:29.381Z,20.30
2018-05-24T02:25:29.416Z,21.60
2018-05-24T02:26:29.454Z,21.50
2018-05-24T02:27:29.486Z,22.50
2018-05-24T02:28:29.522Z,21.90
2018-05-24T02:29:29.557Z,21.20
2018-05-24T02:30:36.728Z,21.80
2018-05-24T02:31:29.627Z,20.30
2018-05-24T02:32:29.667Z,21.40
2018-05-24T02:33:29.699Z,20.10
2018-05-24T02:34:29.735Z,20.40
2018-05-24T02:35:29.769Z,19.70
2018-05-24T02:36:29.805Z,19.00
2018-05-24T02:37:29.840Z,18.30
2018-05-24T02:38:29.876Z,19.10
2018-05-24T02:39:29.910Z,20.10
2018-05-24T02:40:29.946Z,20.80
2018-05-24T02:41:29.982Z,22.20
2018-05-24T02:42:30.017Z,21.90
2018-05-24T02:43:30.053Z,20.80
2018-05-24T02:44:30.088Z,20.80
2018-05-24T02:45:30.123Z,21.30
2018-05-24T02:46:30.158Z,21.60
2018-05-24T02:47:30.192Z,20.80
2018-05-24T02:48:30.228Z,19.40
2018-05-24T02:49:30.264Z,17.90
2018-05-24T02:50:30.300Z,18.30
2018-05-24T02:51:30.333Z,16.30
2018-05-24T02:52:30.369Z,16.60
2018-05-24T02:53:30.405Z,16.70
2018-05-24T02:54:30.446Z,16.30
2018-05-24T02:55:30.477Z,16.00
2018-05-24T02:56:30.510Z,16.50
2018-05-24T02:57:30.545Z,17.70
2018-05-24T02:58:30.581Z,17.50
2018-05-24T02:59:30.616Z,19.90
2018-05-24T03:00:30.651Z,18.90
2018-05-24T03:01:30.691Z,19.50
2018-05-24T03:02:30.721Z,19.80
2018-05-24T03:03:30.756Z,18.50
2018-05-24T03:04:30.790Z,19.00
2018-05-24T03:05:30.827Z,19.50
2018-05-24T03:06:30.863Z,21.10
2018-05-24T03:07:30.896Z,20.50
2018-05-24T03:08:30.932Z,18.50
2018-05-24T03:09:30.967Z,19.30
2018-05-24T03:10:31.001Z,19.50
2018-05-24T03:11:31.037Z,18.70
2018-05-24T03:12:31.073Z,18.50
2018-05-24T03:13:31.110Z,17.70
2018-05-24T03:14:31.144Z,18.20
2018-05-24T03:15:31.177Z,17.50
2018-05-24T03:16:31.214Z,17.80
2018-05-24T03:17:31.252Z,18.00
2018-05-24T03:18:31.355Z,17.40
2018-05-24T03:19:31.318Z,17.60
2018-05-24T03:20:31.353Z,18.00
2018-05-24T03:21:31.388Z,19.10
2018-05-24T03:22:31.424Z,18.20
2018-05-24T03:23:31.459Z,17.80
2018-05-24T03:24:31.493Z,17.90
2018-05-24T03:25:31.529Z,17.90
2018-05-24T03:26:31.565Z,17.00
2018-05-24T03:27:31.601Z,17.90
2018-05-24T03:28:31.634Z,19.60
2018-05-24T03:29:31.671Z,19.00
2018-05-24T03:30:31.704Z,19.70
2018-05-24T03:31:31.744Z,20.10
2018-05-24T03:32:31.775Z,20.00
2018-05-24T03:33:31.810Z,20.60
2018-05-24T03:34:31.845Z,20.50
2018-05-24T03:35:31.880Z,19.40
2018-05-24T03:36:31.916Z,19.70
2018-05-24T03:37:31.952Z,19.50
2018-05-24T03:38:31.986Z,19.60
2018-05-24T03:39:32.022Z,19.60
2018-05-24T03:40:32.056Z,20.00
2018-05-24T03:41:32.091Z,19.40
2018-05-24T03:42:32.126Z,20.20
2018-05-24T03:43:32.159Z,20.90
2018-05-24T03:44:32.196Z,20.10
2018-05-24T03:45:32.230Z,19.60
2018-05-24T03:46:32.267Z,19.50
2018-05-24T03:47:32.301Z,18.00
2018-05-24T03:48:32.337Z,17.50
2018-05-24T03:49:32.372Z,17.50
2018-05-24T03:50:32.411Z,17.00
2018-05-24T03:51:32.443Z,16.80
2018-05-24T03:52:32.481Z,16.70
2018-05-24T03:53:32.513Z,17.80
2018-05-24T03:54:32.553Z,16.70
2018-05-24T03:55:32.582Z,16.10
2018-05-24T03:56:32.618Z,16.90
2018-05-24T03:57:32.653Z,16.50
2018-05-24T03:58:32.693Z,17.10
2018-05-24T03:59:32.723Z,17.90
2018-05-24T04:00:32.758Z,16.90
2018-05-24T04:01:32.792Z,16.60
2018-05-24T04:02:32.837Z,16.40
2018-05-24T04:03:32.863Z,14.60
2018-05-24T04:04:32.899Z,15.50
2018-05-24T04:05:32.933Z,14.90
2018-05-24T04:06:32.970Z,16.40
2018-05-24T04:07:33.004Z,16.10
2018-05-24T04:08:33.039Z,14.80
2018-05-24T04:09:33.074Z,14.60
2018-05-24T04:10:33.110Z,13.50
2018-05-24T04:11:33.145Z,12.30
2018-05-24T04:12:33.182Z,11.70
2018-05-24T04:13:33.215Z,11.50
2018-05-24T04:14:33.250Z,10.90
2018-05-24T04:15:33.286Z,10.60
2018-05-24T04:16:33.324Z,11.50
2018-05-24T04:17:33.356Z,10.60
2018-05-24T04:18:33.391Z,11.50
2018-05-24T04:19:33.425Z,10.90
2018-05-24T04:20:33.461Z,11.20
2018-05-24T04:21:33.496Z,11.20
2018-05-24T04:22:33.532Z,11.40
2018-05-24T04:23:33.655Z,12.30
2018-05-24T04:24:33.602Z,10.70
2018-05-24T04:25:33.636Z,12.20
2018-05-24T04:26:33.672Z,11.70
2018-05-24T04:27:33.706Z,11.90
2018-05-24T04:28:33.741Z,11.60
2018-05-24T04:29:33.777Z,12.90
2018-05-24T04:30:33.812Z,12.90
2018-05-24T04:31:33.853Z,13.60
2018-05-24T04:32:33.882Z,13.40
2018-05-24T04:33:33.927Z,13.20
2018-05-24T04:34:33.953Z,13.60
2018-05-24T04:35:33.986Z,12.90
2018-05-24T04:36:34.021Z,15.40
2018-05-24T04:37:34.058Z,15.60
2018-05-24T04:38:34.093Z,14.00
2018-05-24T04:39:34.127Z,14.90
2018-05-24T04:40:34.163Z,15.70
2018-05-24T04:41:34.198Z,16.00
2018-05-24T04:42:34.233Z,16.60
2018-05-24T04:43:34.267Z,16.80
2018-05-24T04:44:34.303Z,16.70
2018-05-24T04:45:34.400Z,15.90
2018-05-24T04:46:34.374Z,15.60
2018-05-24T04:47:34.408Z,16.90
2018-05-24T04:48:34.444Z,17.20
2018-05-24T04:49:34.479Z,15.70
2018-05-24T04:50:34.513Z,16.10
2018-05-24T04:51:34.549Z,16.10
2018-05-24T04:52:34.584Z,16.00
2018-05-24T04:53:34.620Z,15.40
2018-05-24T04:54:34.655Z,14.70
2018-05-24T04:55:34.689Z,13.60
2018-05-24T04:56:34.724Z,13.70
2018-05-24T04:57:34.760Z,14.00
2018-05-24T04:58:34.794Z,12.80
2018-05-24T04:59:34.830Z,12.30
2018-05-24T05:00:34.870Z,13.40
2018-05-24T05:01:34.940Z,12.80
2018-05-24T05:02:34.935Z,11.70
2018-05-24T05:03:34.968Z,13.20
2018-05-24T05:04:35.005Z,12.70
2018-05-24T05:05:35.039Z,11.90
2018-05-24T05:06:35.075Z,12.30
2018-05-24T05:07:35.111Z,12.70
2018-05-24T05:08:35.145Z,12.10
2018-05-24T05:09:35.179Z,12.40
2018-05-24T05:10:35.216Z,12.50
2018-05-24T05:11:35.250Z,12.30
2018-05-24T05:12:35.285Z,12.60
2018-05-24T05:13:35.368Z,12.00
2018-05-24T05:14:35.377Z,12.60
2018-05-24T05:15:35.390Z,12.90
2018-05-24T05:16:35.426Z,11.80
2018-05-24T05:17:35.461Z,11.50
2018-05-24T05:18:35.497Z,11.80
2018-05-24T05:19:35.579Z,11.50
2018-05-24T05:20:35.567Z,11.80
2018-05-24T05:21:35.602Z,11.10
2018-05-24T05:22:35.638Z,11.40
2018-05-24T05:23:35.676Z,10.70
2018-05-24T05:24:35.709Z,10.80
2018-05-24T05:25:35.744Z,11.30
2018-05-24T05:26:35.781Z,11.60
2018-05-24T05:27:35.814Z,12.00
2018-05-24T05:28:35.853Z,11.20
2018-05-24T05:29:35.886Z,10.50
2018-05-24T05:30:35.966Z,10.70
2018-05-24T05:31:35.962Z,10.80
2018-05-24T05:32:35.992Z,10.40
2018-05-24T05:33:36.035Z,10.40
2018-05-24T05:34:36.065Z,10.00
2018-05-24T05:35:36.100Z,11.10
2018-05-24T05:36:36.135Z,9.70
2018-05-24T05:37:36.172Z,10.40
2018-05-24T05:38:36.208Z,10.70
2018-05-24T05:39:36.242Z,10.30
2018-05-24T05:40:36.277Z,9.60
2018-05-24T05:41:36.314Z,10.40
2018-05-24T05:42:36.351Z,9.60
2018-05-24T05:43:36.385Z,10.60
2018-05-24T05:44:36.421Z,10.10
2018-05-24T05:45:36.459Z,9.90
2018-05-24T05:46:36.495Z,9.90
2018-05-24T05:47:36.529Z,9.40
2018-05-24T05:48:36.567Z,10.00
2018-05-24T05:49:36.604Z,9.90
2018-05-24T05:50:36.640Z,9.10
2018-05-24T05:51:36.676Z,9.90
2018-05-24T05:52:36.712Z,10.10
2018-05-24T05:53:36.750Z,8.90
2018-05-24T05:54:36.787Z,8.20
2018-05-24T05:55:36.822Z,7.90
2018-05-24T05:56:36.859Z,7.60
2018-05-24T05:57:36.895Z,8.60
2018-05-24T05:58:36.932Z,8.50
2018-05-24T05:59:36.968Z,8.40
2018-05-24T06:00:37.006Z,8.20
2018-05-24T06:01:37.070Z,8.90
2018-05-24T06:02:37.079Z,8.90
2018-05-24T06:03:37.115Z,8.60
2018-05-24T06:04:37.150Z,8.20
2018-05-24T06:05:37.188Z,9.00
2018-05-24T06:06:37.225Z,8.90
2018-05-24T06:07:37.261Z,8.90
2018-05-24T06:08:37.299Z,9.40
2018-05-24T06:09:37.397Z,8.10
2018-05-24T06:10:37.372Z,8.40
2018-05-24T06:11:37.409Z,8.20
2018-05-24T06:12:37.444Z,8.30
2018-05-24T06:13:37.482Z,9.30
2018-05-24T06:14:37.519Z,8.20
2018-05-24T06:15:37.555Z,8.40
2018-05-24T06:16:37.590Z,8.20
2018-05-24T06:17:37.627Z,7.60
2018-05-24T06:18:37.675Z,7.40
2018-05-24T06:19:37.700Z,7.90
2018-05-24T06:20:37.737Z,7.00
2018-05-24T06:21:37.849Z,8.00
2018-05-24T06:22:37.871Z,7.20
2018-05-24T06:23:37.847Z,7.00
2018-05-24T06:24:37.883Z,7.80
2018-05-24T06:25:37.921Z,7.70
2018-05-24T06:26:37.957Z,7.30
2018-05-24T06:27:37.993Z,7.60
2018-05-24T06:28:38.030Z,7.90
2018-05-24T06:29:38.068Z,7.90
2018-05-24T06:30:38.105Z,8.70
2018-05-24T06:31:38.139Z,8.30
2018-05-24T06:32:38.179Z,8.00
2018-05-24T06:33:38.214Z,8.50
2018-05-24T06:34:38.251Z,6.90
2018-05-24T06:35:38.293Z,7.50
2018-05-24T06:36:38.324Z,7.70
2018-05-24T06:37:38.360Z,7.60
2018-05-24T06:38:38.407Z,7.30
2018-05-24T06:39:38.433Z,7.50
2018-05-24T06:40:38.514Z,7.10
2018-05-24T06:41:38.507Z,6.90
2018-05-24T06:42:38.547Z,7.90
2018-05-24T06:43:38.581Z,7.50
2018-05-24T06:44:38.616Z,7.00
2018-05-24T06:45:38.654Z,7.60
2018-05-24T06:46:38.691Z,7.40
2018-05-24T06:47:38.727Z,7.00
2018-05-24T06:48:38.769Z,6.70
2018-05-24T06:49:38.800Z,7.10
2018-05-24T06:50:38.842Z,6.90
2018-05-24T06:51:38.875Z,7.00
2018-05-24T06:52:38.912Z,7.00
2018-05-24T06:53:38.965Z,6.90
2018-05-24T06:54:38.986Z,6.80
2018-05-24T06:55:39.022Z,6.40
2018-05-24T06:56:39.059Z,6.80
2018-05-24T06:57:39.097Z,6.30
2018-05-24T06:58:39.133Z,6.10
2018-05-24T06:59:39.170Z,6.60
2018-05-24T07:00:39.208Z,6.70
2018-05-24T07:01:39.248Z,7.40
2018-05-24T07:02:39.283Z,7.30
2018-05-24T07:03:39.319Z,6.70
2018-05-24T07:04:39.356Z,6.90
2018-05-24T07:05:39.394Z,6.30
2018-05-24T07:06:39.430Z,6.50
2018-05-24T07:07:39.481Z,6.70
2018-05-24T07:08:39.505Z,6.30
2018-05-24T07:09:39.546Z,6.60
2018-05-24T07:10:39.581Z,6.30
2018-05-24T07:11:39.618Z,6.10
2018-05-24T07:12:39.655Z,5.80
2018-05-24T07:13:39.694Z,5.90
2018-05-24T07:14:39.733Z,6.10
2018-05-24T07:15:39.769Z,5.60
2018-05-24T07:16:39.806Z,6.20
2018-05-24T07:17:39.843Z,5.60
2018-05-24T07:18:39.889Z,6.20
2018-05-24T07:19:39.919Z,5.90
2018-05-24T07:20:39.957Z,6.30
2018-05-24T07:21:40.002Z,6.20
2018-05-24T07:22:40.038Z,6.30
2018-05-24T07:23:40.071Z,6.70
2018-05-24T07:24:40.223Z,6.80
2018-05-24T07:25:40.148Z,6.20
2018-05-24T07:26:40.186Z,6.50
2018-05-24T07:27:40.223Z,5.90
2018-05-24T07:28:40.261Z,6.20
2018-05-24T07:29:40.304Z,6.50
2018-05-24T07:30:40.339Z,6.30
2018-05-24T07:31:40.376Z,5.70
2018-05-24T07:32:40.414Z,5.70
2018-05-24T07:33:40.453Z,5.90
2018-05-24T07:34:40.491Z,5.60
2018-05-24T07:35:40.530Z,6.10
2018-05-24T07:36:40.567Z,6.00
2018-05-24T07:37:40.663Z,6.10
2018-05-24T07:38:40.650Z,6.30
2018-05-24T07:39:40.790Z,6.00
2018-05-24T07:40:40.721Z,6.30
2018-05-24T07:41:40.761Z,5.90
2018-05-24T07:42:40.799Z,6.10
2018-05-24T07:43:40.837Z,6.60
2018-05-24T07:44:40.875Z,6.50
2018-05-24T07:45:40.913Z,5.90
2018-05-24T07:46:40.954Z,6.30
2018-05-24T07:47:40.989Z,6.50
2018-05-24T07:48:41.029Z,5.90
2018-05-24T07:49:41.069Z,6.20
2018-05-24T07:50:41.106Z,5.60
2018-05-24T07:51:41.147Z,6.00
2018-05-24T07:52:41.183Z,6.20
2018-05-24T07:53:41.222Z,5.50
2018-05-24T07:54:41.268Z,6.00
2018-05-24T07:55:41.299Z,6.30
2018-05-24T07:56:41.338Z,5.60
2018-05-24T07:57:41.376Z,6.30
2018-05-24T07:58:41.415Z,6.20
2018-05-24T07:59:41.452Z,5.90
2018-05-24T08:00:41.493Z,5.70
2018-05-24T08:01:41.559Z,6.20
2018-05-24T08:02:41.569Z,6.00
2018-05-24T08:03:41.608Z,6.20
2018-05-24T08:04:41.646Z,5.80
2018-05-24T08:05:41.687Z,6.10
2018-05-24T08:06:41.729Z,5.10
2018-05-24T08:07:41.761Z,6.80
2018-05-24T08:08:41.853Z,6.60
2018-05-24T08:09:41.840Z,6.50
2018-05-24T08:10:41.878Z,6.90
2018-05-24T08:11:41.916Z,6.90
2018-05-24T08:12:41.956Z,7.30
2018-05-24T08:13:41.999Z,8.60
2018-05-24T08:14:42.134Z,9.30
2018-05-24T08:15:42.072Z,9.60
2018-05-24T08:16:42.111Z,8.80
2018-05-24T08:17:42.151Z,8.80
2018-05-24T08:18:42.189Z,9.90
2018-05-24T08:19:42.228Z,11.70
2018-05-24T08:20:42.267Z,13.70
2018-05-24T08:21:42.306Z,13.00
2018-05-24T08:22:42.347Z,11.30
2018-05-24T08:23:42.387Z,12.70
2018-05-24T08:24:42.423Z,12.30
2018-05-24T08:25:42.462Z,12.30
2018-05-24T08:26:42.502Z,13.80
2018-05-24T08:27:42.539Z,13.20
2018-05-24T08:28:42.582Z,14.20
2018-05-24T08:29:42.618Z,14.80
2018-05-24T08:30:42.660Z,15.10
2018-05-24T08:31:42.698Z,16.90
2018-05-24T08:32:42.738Z,16.20
2018-05-24T08:33:42.780Z,16.80
2018-05-24T08:34:42.817Z,18.30
2018-05-24T08:35:42.856Z,18.40
2018-05-24T08:36:42.896Z,19.60
2018-05-24T08:37:42.937Z,21.70
2018-05-24T08:38:42.977Z,21.50
2018-05-24T08:39:43.016Z,22.60
2018-05-24T08:40:43.153Z,23.40
2018-05-24T08:41:43.135Z,23.60
2018-05-24T08:42:43.138Z,24.10
2018-05-24T08:43:43.175Z,23.80
2018-05-24T08:44:43.217Z,23.40
2018-05-24T08:45:43.260Z,22.80
2018-05-24T08:46:43.301Z,23.30
2018-05-24T08:47:43.337Z,22.10
2018-05-24T08:48:43.378Z,26.10
2018-05-24T08:49:43.419Z,26.20
2018-05-24T08:50:43.461Z,24.30
2018-05-24T08:51:43.500Z,24.10
2018-05-24T08:52:43.541Z,23.40
2018-05-24T08:53:43.582Z,23.50
2018-05-24T08:54:43.627Z,24.20
2018-05-24T08:55:43.663Z,24.50
2018-05-24T08:56:43.704Z,25.90
2018-05-24T08:57:43.746Z,25.10
2018-05-24T08:58:43.786Z,26.60
2018-05-24T08:59:43.827Z,27.40
2018-05-24T09:00:43.867Z,27.90
2018-05-24T09:01:43.911Z,28.60
2018-05-24T09:02:43.953Z,28.30
2018-05-24T09:03:43.993Z,29.10
2018-05-24T09:04:44.035Z,28.20
2018-05-24T09:05:44.077Z,27.70
2018-05-24T09:06:44.121Z,27.60
2018-05-24T09:07:44.160Z,27.00
2018-05-24T09:08:44.201Z,26.70
2018-05-24T09:09:44.243Z,25.70
2018-05-24T09:10:44.284Z,26.50
2018-05-24T09:11:44.324Z,24.80
2018-05-24T09:12:44.368Z,24.30
2018-05-24T09:13:44.409Z,25.80
2018-05-24T09:14:44.450Z,24.90
2018-05-24T09:15:44.492Z,24.40
2018-05-24T09:16:44.533Z,25.10
2018-05-24T09:17:44.575Z,25.70
2018-05-24T09:18:44.616Z,24.50
2018-05-24T09:19:44.657Z,24.40
2018-05-24T09:20:44.699Z,24.10
2018-05-24T09:21:44.745Z,26.30
2018-05-24T09:22:44.783Z,24.10
2018-05-24T09:23:44.824Z,24.50
2018-05-24T09:24:44.865Z,25.00
2018-05-24T09:25:44.908Z,23.90
2018-05-24T09:26:44.951Z,26.30
2018-05-24T09:27:44.992Z,22.90
2018-05-24T09:28:45.034Z,24.90
2018-05-24T09:29:45.077Z,24.60
2018-05-24T09:30:45.119Z,23.70
2018-05-24T09:31:45.160Z,22.20
2018-05-24T09:32:45.202Z,23.70
2018-05-24T09:33:45.261Z,24.10
2018-05-24T09:34:45.286Z,24.40
2018-05-24T09:35:45.328Z,24.80
2018-05-24T09:36:45.370Z,26.00
2018-05-24T09:37:45.413Z,24.50
2018-05-24T09:38:45.455Z,22.90
2018-05-24T09:39:45.552Z,22.80
2018-05-24T09:40:45.538Z,21.90
2018-05-24T09:41:45.581Z,20.30
2018-05-24T09:42:45.622Z,21.30
2018-05-24T09:43:45.665Z,23.20
2018-05-24T09:44:45.707Z,20.60
2018-05-24T09:45:45.748Z,19.80
2018-05-24T09:46:45.791Z,19.90
2018-05-24T09:47:45.919Z,18.10
2018-05-24T09:48:45.874Z,19.00
2018-05-24T09:49:45.924Z,17.90
2018-05-24T09:50:45.961Z,18.40
2018-05-24T09:51:46.001Z,18.00
2018-05-24T09:52:46.043Z,17.90
2018-05-24T09:53:46.085Z,15.90
2018-05-24T09:54:46.127Z,15.30
2018-05-24T09:55:46.168Z,18.00
2018-05-24T09:56:46.211Z,38.00
2018-05-24T09:57:46.254Z,19.60
2018-05-24T09:58:46.295Z,13.20
2018-05-24T09:59:46.336Z,11.40
2018-05-24T10:00:46.378Z,11.90
2018-05-24T10:01:46.421Z,12.50
2018-05-24T10:02:46.464Z,12.20
2018-05-24T10:03:46.504Z,11.60
2018-05-24T10:04:46.630Z,10.70
2018-05-24T10:05:46.592Z,9.90
2018-05-24T10:06:46.632Z,9.20
2018-05-24T10:07:46.673Z,8.90
2018-05-24T10:08:46.720Z,9.70
2018-05-24T10:09:46.759Z,10.70
2018-05-24T10:10:46.800Z,9.30
2018-05-24T10:11:46.843Z,9.70
2018-05-24T10:12:46.885Z,9.20
2018-05-24T10:13:46.928Z,7.90
2018-05-24T10:14:46.973Z,8.10
2018-05-24T10:15:47.012Z,8.80
2018-05-24T10:16:47.055Z,8.80
2018-05-24T10:17:47.097Z,7.30
2018-05-24T10:18:47.140Z,8.10
2018-05-24T10:19:47.181Z,8.70
2018-05-24T10:20:47.224Z,9.10
2018-05-24T10:21:47.266Z,8.20
2018-05-24T10:22:47.309Z,8.50
2018-05-24T10:23:47.351Z,7.20
2018-05-24T10:24:47.397Z,8.00
2018-05-24T10:25:47.437Z,7.80
2018-05-24T10:26:47.480Z,8.60
2018-05-24T10:27:47.522Z,8.80
2018-05-24T10:28:47.564Z,8.40
2018-05-24T10:29:47.608Z,10.60
2018-05-24T10:30:47.651Z,9.80
2018-05-24T10:31:47.694Z,7.00
2018-05-24T10:32:47.739Z,8.00
2018-05-24T10:33:47.784Z,7.20
2018-05-24T10:34:47.830Z,6.80
2018-05-24T10:35:47.877Z,7.00
2018-05-24T10:36:47.919Z,7.90
2018-05-24T10:37:47.964Z,6.80
2018-05-24T10:38:48.011Z,8.30
2018-05-24T10:39:48.054Z,7.80
2018-05-24T10:40:48.102Z,7.10
2018-05-24T10:41:48.145Z,7.30
2018-05-24T10:42:48.190Z,7.20
2018-05-24T10:43:48.235Z,7.70
2018-05-24T10:44:48.280Z,8.50
2018-05-24T10:45:48.327Z,7.70
2018-05-24T10:46:48.376Z,7.30
2018-05-24T10:47:48.420Z,7.70
2018-05-24T10:48:48.464Z,7.80
2018-05-24T10:49:48.512Z,8.00
2018-05-24T10:50:48.559Z,8.10
2018-05-24T10:51:48.602Z,8.70
2018-05-24T10:52:48.648Z,8.30
2018-05-24T10:53:48.693Z,8.20
2018-05-24T10:54:48.739Z,7.70
2018-05-24T10:55:48.796Z,8.00
2018-05-24T10:56:48.842Z,7.60
2018-05-24T10:57:48.874Z,7.30
2018-05-24T10:58:48.921Z,12.90
2018-05-24T10:59:48.963Z,9.00
2018-05-24T11:00:49.008Z,6.90
2018-05-24T11:01:49.052Z,6.90
2018-05-24T11:02:49.097Z,7.40
2018-05-24T11:03:49.141Z,7.20
2018-05-24T11:04:49.185Z,6.70
2018-05-24T11:05:49.231Z,6.90
2018-05-24T11:06:49.275Z,6.90
2018-05-24T11:07:49.318Z,7.10
2018-05-24T11:08:49.389Z,6.50
2018-05-24T11:09:49.408Z,9.20
2018-05-24T11:10:49.452Z,9.10
2018-05-24T11:11:49.496Z,9.80
2018-05-24T11:12:49.541Z,7.50
2018-05-24T11:13:49.585Z,6.60
2018-05-24T11:14:49.630Z,6.90
2018-05-24T11:15:49.673Z,6.30
2018-05-24T11:16:49.717Z,6.90
2018-05-24T11:17:49.761Z,6.70
2018-05-24T11:18:49.805Z,6.10
2018-05-24T11:19:49.849Z,6.80
2018-05-24T11:20:49.896Z,6.30
2018-05-24T11:21:49.939Z,6.00
2018-05-24T11:22:49.983Z,6.60
2018-05-24T11:23:50.031Z,6.40
2018-05-24T11:24:50.075Z,5.80
2018-05-24T11:25:50.119Z,6.30
2018-05-24T11:26:50.164Z,6.60
2018-05-24T11:27:50.211Z,6.50
2018-05-24T11:28:50.253Z,6.70
2018-05-24T11:29:50.298Z,6.60
2018-05-24T11:30:50.344Z,6.40
2018-05-24T11:31:50.462Z,6.40
2018-05-24T11:32:50.432Z,6.70
2018-05-24T11:33:50.478Z,6.10
2018-05-24T11:34:50.521Z,6.40
2018-05-24T11:35:50.566Z,6.20
2018-05-24T11:36:50.611Z,6.70
2018-05-24T11:37:50.656Z,6.20
2018-05-24T11:38:50.749Z,6.10
2018-05-24T11:39:50.745Z,5.80
2018-05-24T11:40:50.791Z,5.70
2018-05-24T11:41:50.839Z,6.30
2018-05-24T11:42:50.890Z,5.80
2018-05-24T11:43:50.932Z,6.40
2018-05-24T11:44:50.981Z,5.30
2018-05-24T11:45:51.030Z,5.20
2018-05-24T11:46:51.077Z,5.60
2018-05-24T11:47:51.128Z,5.20
2018-05-24T11:48:51.173Z,5.10
2018-05-24T11:49:51.221Z,4.70
2018-05-24T11:50:51.273Z,4.50
2018-05-24T11:51:51.388Z,4.10
2018-05-24T11:52:51.367Z,3.60
2018-05-24T11:53:51.418Z,3.70
2018-05-24T11:54:51.467Z,3.70
2018-05-24T11:55:51.517Z,3.60
2018-05-24T11:56:51.568Z,3.80
2018-05-24T11:57:51.618Z,3.50
2018-05-24T11:58:51.668Z,3.70
2018-05-24T11:59:51.718Z,3.60
2018-05-24T12:00:51.769Z,4.20
2018-05-24T12:01:51.856Z,3.70
2018-05-24T12:02:51.875Z,3.80
2018-05-24T12:03:51.916Z,3.80
2018-05-24T12:04:52.012Z,3.70
2018-05-24T12:05:52.104Z,3.40
2018-05-24T12:06:52.066Z,3.50
2018-05-24T12:07:52.119Z,3.20
2018-05-24T12:08:52.166Z,3.60
2018-05-24T12:09:52.306Z,3.20
2018-05-24T12:10:52.270Z,3.10
2018-05-24T12:11:52.320Z,2.70
2018-05-24T12:12:52.372Z,2.80
2018-05-24T12:13:52.424Z,3.20
2018-05-24T12:14:52.477Z,2.80
2018-05-24T12:15:52.529Z,2.80
2018-05-24T12:16:52.585Z,2.70
2018-05-24T12:17:52.635Z,2.60
2018-05-24T12:18:52.709Z,2.80
2018-05-24T12:19:52.741Z,2.70
2018-05-24T12:20:52.797Z,2.90
2018-05-24T12:21:52.851Z,2.40
2018-05-24T12:22:52.904Z,2.40
2018-05-24T12:23:52.961Z,2.50
2018-05-24T12:24:53.013Z,2.40
2018-05-24T12:25:53.068Z,2.40
2018-05-24T12:26:53.123Z,1.80
2018-05-24T12:27:53.181Z,2.10
2018-05-24T12:28:53.252Z,4.90
2018-05-24T12:29:53.288Z,2.00
2018-05-24T12:30:53.343Z,1.90
2018-05-24T12:31:53.399Z,1.90
2018-05-24T12:32:53.454Z,1.70
2018-05-24T12:33:53.509Z,1.70
2018-05-24T12:34:53.567Z,2.10
2018-05-24T12:35:53.621Z,1.60
2018-05-24T12:36:53.678Z,2.70
2018-05-24T12:37:53.734Z,2.50
2018-05-24T12:38:53.792Z,1.40
2018-05-24T12:39:53.847Z,1.50
2018-05-24T12:40:53.903Z,2.00
2018-05-24T12:42:54.218Z,1.80
2018-05-24T12:44:54.149Z,4.80
2018-05-24T12:45:54.193Z,2.60
2018-05-24T12:46:54.245Z,1.70
2018-05-24T12:47:54.305Z,1.50
2018-05-24T12:48:54.416Z,1.40
2018-05-24T12:49:54.420Z,1.40
2018-05-24T12:50:54.472Z,1.30
2018-05-24T12:51:54.531Z,1.30
2018-05-24T12:52:54.586Z,1.50
2018-05-24T12:53:54.642Z,1.40
2018-05-24T12:54:54.699Z,1.20
2018-05-24T12:55:54.755Z,1.20
2018-05-24T12:56:54.810Z,1.30
2018-05-24T12:57:54.873Z,1.50
2018-05-24T12:58:54.922Z,2.10
2018-05-24T12:59:54.976Z,3.40
2018-05-24T13:00:55.034Z,3.50
2018-05-24T13:01:55.090Z,1.50
2018-05-24T13:02:55.147Z,1.30
2018-05-24T13:03:55.200Z,1.60
2018-05-24T13:04:55.257Z,1.60
2018-05-24T13:05:55.313Z,1.20